Time;durP1;ratioP1;P1;durP2;ratioP2;P2;SDS_P1;SDS_P2;PMS_P1;PMS_P2;Temp;Humidity;BMP_temperature;BMP_pressure;BME280_temperature;BME280_humidity;BME280_pressure;Samples;Min_cycle;Max_cycle;Signal;HPM_P1;HPM_P2
2023/02/01 00:01:10;;;;;;;5.07;3.55;;;6.30;99.90;;;;;;5034331;28;20027;-51
2023/02/01 00:03:36;;;;;;;5.72;3.85;;;6.30;99.90;;;;;;5033916;28;20097;-54
2023/02/01 00:06:01;;;;;;;10.60;6.75;;;6.30;99.90;;;;;;5034230;28;20021;-52
2023/02/01 00:08:27;;;;;;;6.15;4.95;;;6.30;99.90;;;;;;5016498;28;20076;-55
2023/02/01 00:11:01;;;;;;;5.35;4.13;;;6.30;99.90;;;;;;5034117;28;20076;-55
2023/02/01 00:13:32;;;;;;;4.32;3.58;;;6.30;99.90;;;;;;5016133;28;20029;-53
2023/02/01 00:16:12;;;;;;;4.93;4.22;;;6.30;99.90;;;;;;5034034;28;20030;-56
2023/02/01 00:18:38;;;;;;;4.22;3.83;;;6.30;99.90;;;;;;5033859;28;20092;-51
2023/02/01 00:21:04;;;;;;;4.93;3.95;;;6.30;99.90;;;;;;5016196;28;20464;-50
2023/02/01 00:23:34;;;;;;;6.45;4.05;;;6.30;99.90;;;;;;5033857;28;20488;-55
2023/02/01 00:26:04;;;;;;;5.55;4.30;;;6.20;99.90;;;;;;5033828;28;20021;-55
2023/02/01 00:28:29;;;;;;;6.15;4.07;;;6.20;99.90;;;;;;5033285;28;20037;-54
2023/02/01 00:31:04;;;;;;;5.30;4.80;;;6.10;99.90;;;;;;5067344;23;20049;-45
2023/02/01 00:33:31;;;;;;;7.43;4.73;;;6.10;99.90;;;;;;5052960;28;20017;-43
2023/02/01 00:36:01;;;;;;;4.78;4.25;;;6.10;99.90;;;;;;5053469;28;20476;-47
2023/02/01 00:38:28;;;;;;;4.47;4.15;;;6.00;99.90;;;;;;5053542;28;20029;-44
2023/02/01 00:40:54;;;;;;;5.57;4.75;;;6.00;99.90;;;;;;5053411;28;20100;-47
2023/02/01 00:43:19;;;;;;;7.78;5.30;;;6.10;99.90;;;;;;5053346;28;20520;-45
2023/02/01 00:45:46;;;;;;;5.30;4.50;;;6.00;99.90;;;;;;5053449;28;20025;-44
2023/02/01 00:48:12;;;;;;;6.78;4.90;;;6.00;99.90;;;;;;5053852;28;20055;-45
2023/02/01 00:50:42;;;;;;;8.48;4.60;;;6.00;99.90;;;;;;5053686;28;20048;-44
2023/02/01 00:53:09;;;;;;;10.38;5.30;;;6.00;99.90;;;;;;5053539;28;20028;-45
2023/02/01 00:55:34;;;;;;;6.20;4.40;;;6.00;99.90;;;;;;5053439;28;20036;-49
2023/02/01 00:58:00;;;;;;;12.27;5.07;;;6.00;99.90;;;;;;5052919;28;20044;-46
2023/02/01 01:00:25;;;;;;;8.38;5.30;;;6.00;99.90;;;;;;5052758;28;20507;-45
2023/02/01 01:02:51;;;;;;;8.98;4.95;;;6.00;99.90;;;;;;5053022;28;20111;-45
2023/02/01 01:05:16;;;;;;;5.20;4.80;;;6.00;99.90;;;;;;5053019;28;20059;-44
2023/02/01 01:07:42;;;;;;;7.82;5.65;;;6.00;99.90;;;;;;5053060;28;20381;-44
2023/02/01 01:10:08;;;;;;;5.82;4.28;;;6.00;99.90;;;;;;5052608;28;20417;-48
2023/02/01 01:12:33;;;;;;;6.88;4.88;;;6.10;99.90;;;;;;5052659;28;20025;-46
2023/02/01 01:14:59;;;;;;;6.15;4.30;;;6.10;99.90;;;;;;5052984;28;20392;-48
2023/02/01 01:17:24;;;;;;;6.53;4.40;;;6.10;99.90;;;;;;5053486;28;20025;-45
2023/02/01 01:19:50;;;;;;;5.43;4.63;;;6.20;99.90;;;;;;5053219;28;20025;-44
2023/02/01 01:22:15;;;;;;;9.00;5.50;;;6.30;99.90;;;;;;5052550;28;20056;-47
2023/02/01 01:24:40;;;;;;;6.28;5.22;;;6.30;99.90;;;;;;5052351;28;20035;-43
2023/02/01 01:27:06;;;;;;;7.28;4.32;;;6.30;99.90;;;;;;5052507;28;20033;-44
2023/02/01 01:29:31;;;;;;;5.80;4.78;;;6.40;99.90;;;;;;5052343;28;20064;-48
2023/02/01 01:31:57;;;;;;;10.25;5.13;;;6.40;99.90;;;;;;5052349;28;20041;-44
2023/02/01 01:34:22;;;;;;;7.70;5.20;;;6.50;99.90;;;;;;5034277;28;20112;-49
2023/02/01 01:36:48;;;;;;;11.40;5.97;;;6.40;99.90;;;;;;5052400;28;20047;-47
2023/02/01 01:39:13;;;;;;;9.98;5.05;;;6.40;99.90;;;;;;5051861;28;20036;-44
2023/02/01 01:41:39;;;;;;;6.45;5.43;;;6.40;99.90;;;;;;5052289;28;20104;-47
2023/02/01 01:44:06;;;;;;;12.45;4.93;;;6.40;99.90;;;;;;5051977;28;20033;-48
2023/02/01 01:46:35;;;;;;;7.25;5.47;;;6.40;99.90;;;;;;5052365;28;20464;-44
2023/02/01 01:49:23;;;;;;;10.13;6.03;;;6.40;99.90;;;;;;5052136;28;20036;-47
2023/02/01 01:51:52;;;;;;;8.05;5.75;;;6.40;99.90;;;;;;5052062;28;20090;-40
2023/02/01 01:54:23;;;;;;;7.53;5.15;;;6.40;99.90;;;;;;5051881;28;20029;-45
2023/02/01 01:56:52;;;;;;;12.30;6.28;;;6.40;99.90;;;;;;5052179;28;20603;-46
2023/02/01 01:59:20;;;;;;;11.93;6.53;;;6.30;99.90;;;;;;5051854;28;20021;-46
2023/02/01 02:01:46;;;;;;;7.55;5.68;;;6.40;99.90;;;;;;5051742;28;20017;-46
2023/02/01 02:04:12;;;;;;;8.73;6.30;;;6.30;99.90;;;;;;5051560;28;20024;-46
2023/02/01 02:06:41;;;;;;;8.15;5.90;;;6.30;99.90;;;;;;5051828;28;20025;-43
2023/02/01 02:09:07;;;;;;;8.30;6.03;;;6.30;99.90;;;;;;5051049;28;20051;-47
2023/02/01 02:11:33;;;;;;;9.30;5.85;;;6.40;99.90;;;;;;5051436;28;20040;-47
2023/02/01 02:14:00;;;;;;;9.70;7.03;;;6.40;99.90;;;;;;5050953;28;20446;-44
2023/02/01 02:16:56;;;;;;;10.93;6.47;;;6.40;99.90;;;;;;5051672;28;20035;-47
2023/02/01 02:19:50;;;;;;;13.20;6.20;;;6.40;99.90;;;;;;5030836;28;20105;-46
2023/02/01 02:22:43;;;;;;;11.65;5.97;;;6.40;99.90;;;;;;5031477;28;20028;-44
2023/02/01 02:25:38;;;;;;;9.50;6.40;;;6.30;99.90;;;;;;5031591;28;20025;-47
2023/02/01 02:28:16;;;;;;;7.03;6.32;;;6.40;99.90;;;;;;5013919;28;20032;-43
2023/02/01 02:31:05;;;;;;;11.73;6.20;;;6.40;99.90;;;;;;5031245;28;20091;-47
2023/02/01 02:33:49;;;;;;;11.13;6.32;;;6.40;99.90;;;;;;5031384;28;20068;-44
2023/02/01 02:36:37;;;;;;;12.13;6.05;;;6.40;99.90;;;;;;5031858;28;20457;-45
2023/02/01 02:39:34;;;;;;;8.00;6.30;;;6.40;99.90;;;;;;5031410;28;20033;-44
2023/02/01 02:48:24;;;;;;;9.23;6.25;;;6.50;99.90;;;;;;5031433;28;20047;-44
2023/02/01 03:04:56;;;;;;;8.25;6.50;;;6.70;99.90;;;;;;5031586;28;20076;-44
2023/02/01 03:07:55;;;;;;;7.20;6.47;;;6.70;99.90;;;;;;5013767;28;20032;-40
2023/02/01 03:10:55;;;;;;;10.95;6.63;;;6.60;99.90;;;;;;5030789;28;20036;-47
2023/02/01 03:13:36;;;;;;;9.50;6.30;;;6.50;99.90;;;;;;5030990;28;20026;-48
2023/02/01 03:16:17;;;;;;;9.38;6.57;;;6.50;99.90;;;;;;5031119;28;20471;-44
2023/02/01 03:19:13;;;;;;;9.45;7.47;;;6.40;99.90;;;;;;5031222;28;20021;-47
2023/02/01 03:21:50;;;;;;;;;;;6.40;99.90;;;;;;5034522;28;20083;-46
2023/02/01 03:24:18;;;;;;;12.55;7.32;;;6.40;99.90;;;;;;5034849;28;20559;-44
2023/02/01 03:26:52;;;;;;;15.35;8.73;;;6.40;99.90;;;;;;5035218;28;20037;-47
2023/02/01 03:29:25;;;;;;;12.45;6.88;;;6.30;99.90;;;;;;5034731;28;20030;-49
2023/02/01 03:31:50;;;;;;;9.57;6.68;;;6.30;99.90;;;;;;5017675;28;20554;-44
2023/02/01 03:34:16;;;;;;;9.55;7.20;;;6.30;99.90;;;;;;5035015;28;20029;-47
2023/02/01 03:37:08;;;;;;;14.25;7.30;;;6.20;99.90;;;;;;5035173;28;20053;-49
2023/02/01 03:39:43;;;;;;;13.70;7.03;;;6.20;99.90;;;;;;5031861;28;20033;-45
2023/02/01 03:42:17;;;;;;;18.85;8.02;;;6.20;99.90;;;;;;5034524;28;20033;-44
2023/02/01 03:45:07;;;;;;;13.48;7.28;;;6.20;99.90;;;;;;5034818;28;20485;-50
2023/02/01 03:47:37;;;;;;;14.43;7.13;;;6.20;99.90;;;;;;5023186;28;20124;-49
2023/02/01 03:50:10;;;;;;;16.45;7.00;;;6.10;99.90;;;;;;5034409;28;20025;-45
2023/02/01 03:52:44;;;;;;;12.82;7.07;;;6.10;99.90;;;;;;5033909;28;20025;-42
2023/02/01 03:55:12;;;;;;;10.98;7.13;;;6.10;99.90;;;;;;5034472;28;20397;-48
2023/02/01 03:57:43;;;;;;;9.77;7.03;;;6.10;99.90;;;;;;5034315;28;20025;-46
2023/02/01 04:00:22;;;;;;;9.73;6.60;;;6.10;99.90;;;;;;5034385;28;20014;-46
2023/02/01 04:02:48;;;;;;;13.25;6.80;;;6.10;99.90;;;;;;5033974;28;20075;-44
2023/02/01 04:05:14;;;;;;;13.75;6.55;;;6.00;99.90;;;;;;5034222;28;20065;-45
2023/02/01 04:07:40;;;;;;;9.40;7.15;;;6.00;99.90;;;;;;5034214;28;20394;-44
2023/02/01 04:10:05;;;;;;;7.72;6.00;;;6.10;99.90;;;;;;5033857;28;20104;-42
2023/02/01 04:12:31;;;;;;;10.20;6.15;;;6.00;99.90;;;;;;5033905;28;20083;-44
2023/02/01 04:14:56;;;;;;;11.85;6.55;;;6.10;99.90;;;;;;5033950;28;20033;-44
2023/02/01 04:17:22;;;;;;;9.30;5.70;;;6.10;99.90;;;;;;5034258;28;20018;-44
2023/02/01 04:19:47;;;;;;;9.43;6.35;;;6.10;99.90;;;;;;5034221;28;20025;-46
2023/02/01 04:22:13;;;;;;;9.60;5.38;;;6.10;99.90;;;;;;5033749;28;20026;-47
2023/02/01 04:24:38;;;;;;;8.35;5.65;;;6.10;99.90;;;;;;5033641;28;20076;-48
2023/02/01 04:27:04;;;;;;;7.53;5.93;;;6.10;99.90;;;;;;5033634;28;20080;-46
2023/02/01 04:29:29;;;;;;;9.82;5.80;;;6.10;99.90;;;;;;5033718;28;20095;-43
2023/02/01 04:31:55;;;;;;;11.80;5.55;;;6.10;99.90;;;;;;5032993;28;20029;-43
2023/02/01 04:34:22;;;;;;;7.95;5.50;;;6.10;99.90;;;;;;5033238;28;20111;-43
2023/02/01 04:36:48;;;;;;;14.55;6.93;;;6.10;99.90;;;;;;5033852;28;20511;-43
2023/02/01 04:39:13;;;;;;;5.40;4.88;;;6.00;99.90;;;;;;5033549;28;20053;-41
2023/02/01 04:41:39;;;;;;;10.98;4.60;;;6.10;99.90;;;;;;5033664;28;20045;-44
2023/02/01 04:44:04;;;;;;;10.52;5.97;;;6.10;99.90;;;;;;5034287;28;20562;-47
2023/02/01 04:46:30;;;;;;;8.32;5.05;;;6.10;99.90;;;;;;5033939;28;20076;-46
2023/02/01 04:48:56;;;;;;;12.88;5.28;;;6.10;99.90;;;;;;5033743;28;20401;-44
2023/02/01 04:51:21;;;;;;;4.80;4.28;;;6.10;99.90;;;;;;5033279;28;20030;-46
2023/02/01 04:53:47;;;;;;;7.40;4.68;;;6.20;99.90;;;;;;5033084;28;20021;-47
2023/02/01 04:56:13;;;;;;;9.10;5.10;;;6.20;99.90;;;;;;5033141;28;20022;-44
2023/02/01 04:58:38;;;;;;;9.10;4.50;;;6.20;99.90;;;;;;5015123;28;20025;-47
2023/02/01 05:01:06;;;;;;;9.82;4.82;;;6.20;99.90;;;;;;5033053;28;20115;-49
2023/02/01 05:03:32;;;;;;;6.20;4.57;;;6.20;99.90;;;;;;5032893;28;20029;-46
2023/02/01 05:05:59;;;;;;;8.48;4.28;;;6.20;99.90;;;;;;5033148;28;20097;-48
2023/02/01 05:08:25;;;;;;;8.43;4.25;;;6.20;99.90;;;;;;5033225;28;20072;-45
2023/02/01 05:10:51;;;;;;;5.65;4.20;;;6.20;99.90;;;;;;5032763;28;20504;-45
2023/02/01 05:16:01;;;;;;;8.20;3.88;;;6.20;99.90;;;;;;5032838;28;20104;-51
2023/02/01 05:18:26;;;;;;;6.50;3.47;;;6.20;99.90;;;;;;5032698;28;20037;-48
2023/02/01 05:20:52;;;;;;;6.85;3.00;;;6.20;99.90;;;;;;5032631;28;20124;-47
2023/02/01 05:23:17;;;;;;;6.07;3.53;;;6.20;99.90;;;;;;5032368;28;20029;-44
2023/02/01 05:25:43;;;;;;;8.63;3.45;;;6.20;99.90;;;;;;5032476;28;20025;-44
2023/02/01 05:28:08;;;;;;;7.82;3.30;;;6.20;99.90;;;;;;5032804;28;20057;-45
2023/02/01 05:30:35;;;;;;;9.25;2.95;;;6.20;99.90;;;;;;5032145;28;20085;-47
2023/02/01 05:33:01;;;;;;;7.38;2.65;;;6.20;99.90;;;;;;5032240;28;20052;-46
2023/02/01 05:35:26;;;;;;;7.25;3.22;;;6.20;99.90;;;;;;5031978;28;20033;-46
2023/02/01 05:37:51;;;;;;;10.05;3.42;;;6.10;99.90;;;;;;5032426;28;20029;-46
2023/02/01 05:40:17;;;;;;;10.45;3.22;;;6.10;99.90;;;;;;5032121;28;20432;-44
2023/02/01 05:42:43;;;;;;;5.30;2.65;;;6.10;99.90;;;;;;5031746;28;20044;-47
2023/02/01 05:45:08;;;;;;;7.63;3.97;;;6.10;99.90;;;;;;5032567;28;20112;-41
2023/02/01 05:47:34;;;;;;;4.10;2.28;;;6.10;99.90;;;;;;5032414;28;20108;-48
2023/02/01 05:49:59;;;;;;;6.88;2.88;;;6.20;99.90;;;;;;5031983;28;20032;-47
2023/02/01 05:52:25;;;;;;;3.78;1.70;;;6.20;99.90;;;;;;5031888;28;20026;-47
2023/02/01 05:54:52;;;;;;;5.18;1.50;;;6.20;99.90;;;;;;5032033;28;20030;-45
2023/02/01 05:57:17;;;;;;;3.85;2.55;;;6.20;99.90;;;;;;5032275;28;20082;-49
2023/02/01 05:59:47;;;;;;;4.15;1.50;;;6.20;99.90;;;;;;5032072;28;20040;-45
2023/02/01 06:02:13;;;;;;;4.28;1.70;;;6.30;99.90;;;;;;5031899;28;20017;-45
2023/02/01 06:04:41;;;;;;;3.42;1.20;;;6.20;99.90;;;;;;5013768;28;20151;-46
2023/02/01 06:07:08;;;;;;;3.22;1.35;;;6.20;99.90;;;;;;5031923;28;20029;-46
2023/02/01 06:09:34;;;;;;;4.15;1.77;;;6.20;99.90;;;;;;5031638;28;20026;-46
2023/02/01 06:12:00;;;;;;;2.03;1.60;;;6.10;99.90;;;;;;5031963;28;20385;-46
2023/02/01 06:14:27;;;;;;;3.53;1.45;;;6.00;99.90;;;;;;5032149;28;20018;-47
2023/02/01 06:16:53;;;;;;;3.58;1.73;;;6.10;99.90;;;;;;5031929;28;20033;-47
2023/02/01 06:19:18;;;;;;;4.82;1.83;;;6.00;99.90;;;;;;5031913;28;20033;-48
2023/02/01 06:21:44;;;;;;;3.50;1.55;;;6.00;99.90;;;;;;5031970;28;20140;-45
2023/02/01 06:24:10;;;;;;;8.65;2.15;;;6.00;99.90;;;;;;5031700;28;20392;-46
2023/02/01 06:26:36;;;;;;;4.03;1.90;;;6.00;99.90;;;;;;5031527;28;20025;-45
2023/02/01 06:29:01;;;;;;;3.90;2.13;;;6.00;99.90;;;;;;5032189;28;20424;-47
2023/02/01 06:31:27;;;;;;;5.65;1.83;;;6.00;99.90;;;;;;5052770;23;20056;-58
2023/02/01 06:33:53;;;;;;;7.90;1.90;;;6.00;99.90;;;;;;5030612;28;20446;-53
2023/02/01 06:36:21;;;;;;;6.75;2.72;;;6.00;99.90;;;;;;5030942;28;20040;-52
2023/02/01 06:38:47;;;;;;;7.25;2.70;;;6.00;99.90;;;;;;5031445;28;20067;-52
2023/02/01 06:41:12;;;;;;;12.63;2.95;;;6.00;99.90;;;;;;5031197;28;20057;-53
2023/02/01 06:43:38;;;;;;;9.07;3.25;;;6.00;99.90;;;;;;5031019;28;20057;-54
2023/02/01 06:46:07;;;;;;;8.30;3.28;;;6.00;99.90;;;;;;5031203;28;20506;-51
2023/02/01 06:48:33;;;;;;;9.70;3.03;;;6.00;99.90;;;;;;5031482;28;20577;-51
2023/02/01 06:50:58;;;;;;;14.05;4.53;;;6.00;99.90;;;;;;5031301;28;20021;-50
2023/02/01 06:53:24;;;;;;;11.00;3.33;;;5.90;99.90;;;;;;5030737;28;20029;-51
2023/02/01 06:56:01;;;;;;;5.75;2.30;;;5.90;99.90;;;;;;5033566;28;20179;-58
2023/02/01 06:58:31;;;;;;;6.10;2.45;;;5.90;99.90;;;;;;5035092;28;20401;-53
2023/02/01 07:00:57;;;;;;;13.85;2.83;;;5.80;99.90;;;;;;5035195;28;20033;-52
2023/02/01 07:03:22;;;;;;;7.57;3.00;;;5.80;99.90;;;;;;5017181;28;20400;-53
2023/02/01 07:05:48;;;;;;;5.95;2.42;;;5.80;99.90;;;;;;5035156;28;20069;-53
2023/02/01 07:08:13;;;;;;;5.90;2.72;;;5.80;99.90;;;;;;5034824;28;20401;-54
2023/02/01 07:10:39;;;;;;;6.90;3.20;;;5.80;99.90;;;;;;5034679;28;20038;-53
2023/02/01 07:13:04;;;;;;;8.45;3.90;;;5.70;99.90;;;;;;5034616;28;20448;-57
2023/02/01 07:15:30;;;;;;;9.98;3.97;;;5.70;99.90;;;;;;5016985;28;20144;-51
2023/02/01 07:17:56;;;;;;;10.48;2.42;;;5.70;99.90;;;;;;5017110;28;20554;-52
2023/02/01 07:20:21;;;;;;;16.90;3.65;;;5.60;99.90;;;;;;5034832;28;20052;-55
2023/02/01 07:22:47;;;;;;;6.65;2.75;;;5.60;99.90;;;;;;5034385;28;20499;-55
2023/02/01 07:25:13;;;;;;;8.02;4.00;;;5.60;99.90;;;;;;5017071;28;20113;-52
2023/02/01 07:27:38;;;;;;;7.18;3.25;;;5.50;99.90;;;;;;5034665;28;20021;-56
2023/02/01 07:30:05;;;;;;;9.77;2.90;;;5.50;99.90;;;;;;5034541;28;20236;-56
2023/02/01 07:32:34;;;;;;;7.82;2.50;;;5.60;99.90;;;;;;5034476;28;20022;-51
2023/02/01 07:34:59;;;;;;;12.38;3.22;;;5.50;99.90;;;;;;5034635;28;20501;-53
2023/02/01 07:37:25;;;;;;;8.13;2.97;;;5.50;99.90;;;;;;5034439;28;20033;-52
2023/02/01 07:39:51;;;;;;;10.52;3.80;;;5.50;99.90;;;;;;5034669;28;20022;-55
2023/02/01 07:42:17;;;;;;;12.05;3.92;;;5.50;99.90;;;;;;5033944;28;20029;-52
2023/02/01 07:44:42;;;;;;;12.70;3.70;;;5.60;99.90;;;;;;5034334;28;20036;-54
2023/02/01 07:47:08;;;;;;;7.93;3.83;;;5.60;99.90;;;;;;5034291;28;20037;-56
2023/02/01 07:49:33;;;;;;;8.32;3.33;;;5.60;99.90;;;;;;5034291;28;20138;-54
2023/02/01 07:51:59;;;;;;;23.30;4.13;;;5.70;99.90;;;;;;5034098;28;20420;-52
2023/02/01 07:54:24;;;;;;;13.50;3.38;;;5.70;99.90;;;;;;5033973;28;20092;-54
2023/02/01 07:56:50;;;;;;;19.52;4.38;;;5.80;99.90;;;;;;5034359;28;20079;-54
2023/02/01 07:59:15;;;;;;;10.27;3.72;;;5.80;99.90;;;;;;5034211;28;20340;-53
2023/02/01 08:01:41;;;;;;;18.50;4.57;;;5.90;99.90;;;;;;5034195;28;20029;-51
2023/02/01 08:04:10;;;;;;;17.67;4.32;;;5.90;99.90;;;;;;5033899;28;20021;-54
2023/02/01 08:06:36;;;;;;;11.35;3.30;;;6.00;99.90;;;;;;5033017;28;20036;-51
2023/02/01 08:09:02;;;;;;;14.85;3.50;;;6.00;99.90;;;;;;5034372;28;20473;-53
2023/02/01 08:11:28;;;;;;;14.82;4.82;;;6.10;99.90;;;;;;5016215;28;20071;-52
2023/02/01 08:13:53;;;;;;;13.90;4.85;;;6.10;99.90;;;;;;5033871;28;20022;-55
2023/02/01 08:16:26;;;;;;;10.35;4.00;;;6.20;99.90;;;;;;5033650;28;20065;-54
2023/02/01 08:18:52;;;;;;;15.27;5.25;;;6.30;99.90;;;;;;5034062;28;20025;-55
2023/02/01 08:21:21;;;;;;;15.38;4.38;;;6.30;99.90;;;;;;5033894;28;20057;-54
2023/02/01 08:23:47;;;;;;;11.20;3.55;;;6.30;99.90;;;;;;5033525;28;20032;-55
2023/02/01 08:26:15;;;;;;;13.20;3.97;;;6.40;99.90;;;;;;5033841;28;20022;-58
2023/02/01 08:28:43;;;;;;;20.35;3.65;;;6.40;99.90;;;;;;5033787;28;20128;-52
2023/02/01 08:31:11;;;;;;;17.63;3.75;;;6.50;99.90;;;;;;5015683;28;20033;-50
2023/02/01 08:33:37;;;;;;;12.27;3.13;;;6.50;99.90;;;;;;5033456;28;20029;-49
2023/02/01 08:36:06;;;;;;;17.25;3.15;;;6.50;99.90;;;;;;5015750;28;20033;-49
2023/02/01 08:38:34;;;;;;;12.80;3.80;;;6.60;99.90;;;;;;5033569;28;20026;-59
2023/02/01 08:41:05;;;;;;;13.93;3.85;;;6.70;99.90;;;;;;5027432;28;20029;-56
2023/02/01 08:43:30;;;;;;;15.02;3.85;;;6.80;99.90;;;;;;5033105;28;20026;-59
2023/02/01 08:45:56;;;;;;;13.02;3.08;;;6.90;99.90;;;;;;5015694;28;20030;-59
2023/02/01 08:48:21;;;;;;;15.93;4.25;;;6.90;99.90;;;;;;5033445;28;20489;-53
2023/02/01 08:50:47;;;;;;;18.55;5.65;;;7.00;99.90;;;;;;5033939;28;20062;-56
2023/02/01 08:53:13;;;;;;;24.23;4.05;;;7.10;99.90;;;;;;5036189;28;20025;-56
2023/02/01 08:55:39;;;;;;;14.23;3.45;;;7.10;99.90;;;;;;5034530;28;20548;-56
2023/02/01 08:58:05;;;;;;;14.38;3.70;;;7.20;99.90;;;;;;5033228;28;20170;-52
2023/02/01 09:00:30;;;;;;;12.70;3.40;;;7.30;99.90;;;;;;5033923;28;20029;-55
2023/02/01 09:02:55;;;;;;;11.77;3.67;;;7.20;99.90;;;;;;5005431;28;20524;-48
2023/02/01 09:05:22;;;;;;;10.45;3.08;;;7.20;99.90;;;;;;5014626;28;20032;-58
2023/02/01 09:07:48;;;;;;;15.52;4.30;;;7.30;99.90;;;;;;5031363;28;20416;-56
2023/02/01 09:10:13;;;;;;;14.32;3.35;;;7.30;99.90;;;;;;5032166;28;20037;-56
2023/02/01 09:12:39;;;;;;;18.50;4.25;;;7.50;99.90;;;;;;5026617;28;20021;-61
2023/02/01 09:15:06;;;;;;;14.77;4.93;;;7.60;99.90;;;;;;5014830;28;20045;-56
2023/02/01 09:17:32;;;;;;;11.10;2.90;;;7.60;99.90;;;;;;5023229;28;20072;-58
2023/02/01 09:19:58;;;;;;;13.60;3.03;;;8.00;99.90;;;;;;5030565;28;20022;-51
2023/02/01 09:22:24;;;;;;;14.40;4.22;;;8.10;99.90;;;;;;5013617;28;20063;-53
2023/02/01 09:24:49;;;;;;;10.13;3.33;;;8.40;99.90;;;;;;5036424;28;20128;-54
2023/02/01 09:27:15;;;;;;;15.45;3.25;;;8.70;99.90;;;;;;5033707;28;20113;-58
2023/02/01 09:29:40;;;;;;;10.60;2.60;;;8.90;99.90;;;;;;5033076;28;20030;-57
2023/02/01 09:32:06;;;;;;;12.60;3.40;;;9.00;99.90;;;;;;5034040;28;20037;-56
2023/02/01 09:34:33;;;;;;;14.65;3.30;;;8.70;99.90;;;;;;5033566;28;20051;-60
2023/02/01 09:36:58;;;;;;;11.95;3.10;;;8.30;99.90;;;;;;5034436;28;20033;-54
2023/02/01 09:39:24;;;;;;;11.85;2.90;;;8.10;99.90;;;;;;5016523;28;20022;-56
2023/02/01 09:42:27;;;;;;;17.33;3.35;;;8.00;99.90;;;;;;5015959;28;20489;-58
2023/02/01 09:45:21;;;;;;;16.20;5.07;;;7.90;99.90;;;;;;5015570;28;20063;-57
2023/02/01 09:47:53;;;;;;;15.63;2.42;;;7.90;99.90;;;;;;5033713;28;20481;-58
2023/02/01 09:50:42;;;;;;;15.40;2.88;;;7.80;99.90;;;;;;5033901;28;20025;-57
2023/02/01 09:53:31;;;;;;;15.07;3.65;;;7.80;99.90;;;;;;5034248;28;20561;-54
2023/02/01 09:56:06;;;;;;;12.02;2.75;;;7.80;99.90;;;;;;5034217;28;20034;-60
2023/02/01 09:58:50;;;;;;;16.10;2.33;;;7.70;99.90;;;;;;5016605;28;20420;-57
2023/02/01 10:01:21;;;;;;;11.80;3.17;;;7.70;99.90;;;;;;5010929;28;20013;-58
2023/02/01 10:03:48;;;;;;;10.70;3.03;;;7.60;99.90;;;;;;5031711;28;20029;-58
2023/02/01 10:06:28;;;;;;;14.43;3.15;;;7.50;99.90;;;;;;5019599;28;20397;-54
2023/02/01 10:09:33;;;;;;;13.98;3.13;;;7.60;99.90;;;;;;5012247;28;20569;-52
2023/02/01 10:12:45;;;;;;;16.55;3.47;;;7.70;99.90;;;;;;4994842;28;20563;-53
2023/02/01 10:15:27;;;;;;;12.50;2.90;;;7.70;99.90;;;;;;5012058;28;20037;-56
2023/02/01 10:18:18;;;;;;;14.70;2.78;;;7.80;99.90;;;;;;5019873;28;20075;-53
2023/02/01 10:20:59;;;;;;;8.45;2.58;;;7.80;99.90;;;;;;5031695;28;20021;-56
2023/02/01 10:23:51;;;;;;;16.30;4.10;;;7.90;99.90;;;;;;5031379;28;20037;-58
2023/02/01 10:26:25;;;;;;;15.20;3.00;;;8.00;99.90;;;;;;5012971;28;20140;-53
2023/02/01 10:28:54;;;;;;;9.63;2.33;;;7.90;99.90;;;;;;5030935;28;20425;-54
2023/02/01 10:31:23;;;;;;;8.60;2.60;;;7.80;99.90;;;;;;5002771;28;20084;-55
2023/02/01 10:33:55;;;;;;;10.95;3.30;;;7.80;99.90;;;;;;5013324;28;20561;-52
2023/02/01 10:36:32;;;;;;;14.63;2.90;;;7.80;99.90;;;;;;5029461;28;20041;-53
2023/02/01 10:38:59;;;;;;;14.32;2.63;;;7.80;99.90;;;;;;5031525;28;20432;-55
2023/02/01 10:41:31;;;;;;;13.57;2.95;;;7.80;99.90;;;;;;5030513;28;20037;-54
2023/02/01 10:43:59;;;;;;;10.82;2.60;;;7.80;99.90;;;;;;5003944;28;20029;-57
2023/02/01 10:46:25;;;;;;;7.78;2.20;;;7.80;99.90;;;;;;5016287;28;20037;-54
2023/02/01 10:48:54;;;;;;;15.70;2.85;;;7.80;99.90;;;;;;5012816;28;20022;-54
2023/02/01 10:51:26;;;;;;;6.75;2.42;;;7.70;99.90;;;;;;5031095;28;20034;-55
2023/02/01 10:53:51;;;;;;;10.38;3.10;;;7.70;99.90;;;;;;5030838;28;20033;-57
2023/02/01 10:56:23;;;;;;;13.45;3.45;;;7.70;99.90;;;;;;5030831;28;20026;-52
2023/02/01 10:58:49;;;;;;;22.00;3.47;;;7.70;99.90;;;;;;5031321;28;20389;-57
2023/02/01 11:01:23;;;;;;;15.60;3.53;;;7.60;99.90;;;;;;5030770;28;20034;-59
2023/02/01 11:03:55;;;;;;;5.78;2.33;;;7.70;99.90;;;;;;5031051;28;20140;-50
2023/02/01 11:06:36;;;;;;;15.55;3.00;;;7.70;99.90;;;;;;5030991;28;20044;-57
2023/02/01 11:09:07;;;;;;;12.50;3.13;;;7.70;99.90;;;;;;5018100;28;20038;-52
2023/02/01 11:11:52;;;;;;;10.32;2.72;;;7.70;99.90;;;;;;5022698;28;20033;-60
2023/02/01 11:14:18;;;;;;;13.95;3.10;;;7.60;99.90;;;;;;5002084;28;20032;-58
2023/02/01 11:16:49;;;;;;;13.27;3.20;;;7.60;99.90;;;;;;5029271;28;20029;-59
2023/02/01 11:19:17;;;;;;;11.18;2.63;;;7.60;99.90;;;;;;5026767;28;20551;-56
2023/02/01 11:21:44;;;;;;;7.72;3.92;;;7.60;99.90;;;;;;5025661;28;20389;-55
2023/02/01 11:24:27;;;;;;;14.52;2.15;;;7.60;99.90;;;;;;5022929;28;20542;-59
2023/02/01 11:26:57;;;;;;;13.43;3.40;;;7.60;99.90;;;;;;5029898;28;20049;-55
2023/02/01 11:29:29;;;;;;;15.43;2.33;;;7.60;99.90;;;;;;5032592;28;20040;-56
2023/02/01 11:31:59;;;;;;;13.65;3.33;;;7.60;99.90;;;;;;5014781;28;20519;-54
2023/02/01 11:34:30;;;;;;;6.32;2.08;;;7.60;99.90;;;;;;5028959;28;20112;-57
2023/02/01 11:37:00;;;;;;;11.75;4.07;;;7.60;99.90;;;;;;5010127;28;20022;-56
2023/02/01 11:39:29;;;;;;;10.77;2.85;;;7.60;99.90;;;;;;5015198;28;20660;-58
2023/02/01 11:42:05;;;;;;;16.17;3.97;;;7.60;99.90;;;;;;5029512;28;20029;-57
2023/02/01 11:44:35;;;;;;;;;;;7.60;99.90;;;;;;5031701;28;20060;-53
2023/02/01 11:47:39;;;;;;;11.57;2.95;;;7.60;99.90;;;;;;5029289;28;20003;-58
2023/02/01 11:50:17;;;;;;;11.98;2.50;;;7.60;99.90;;;;;;4999751;28;20076;-53
2023/02/01 11:52:42;;;;;;;14.38;3.20;;;7.70;99.90;;;;;;5013064;28;20212;-59
2023/02/01 11:55:30;;;;;;;8.35;3.17;;;7.70;99.90;;;;;;5013571;28;20385;-51
2023/02/01 11:58:22;;;;;;;14.30;2.95;;;7.70;99.90;;;;;;5013137;28;20034;-49
2023/02/01 12:01:18;;;;;;;15.95;3.85;;;7.70;99.90;;;;;;5024425;28;20489;-59
2023/02/01 12:03:53;;;;;;;16.13;4.67;;;7.60;99.90;;;;;;5032876;28;20473;-65
2023/02/01 12:06:37;;;;;;;8.10;2.70;;;7.60;99.90;;;;;;5032889;28;20455;-57
2023/02/01 12:09:25;;;;;;;9.35;2.47;;;7.60;99.90;;;;;;5016400;28;20157;-59
2023/02/01 12:12:16;;;;;;;12.10;2.80;;;7.60;99.90;;;;;;4995508;28;20507;-65
2023/02/01 12:14:57;;;;;;;15.38;3.65;;;7.60;99.90;;;;;;5013224;28;20029;-63
2023/02/01 12:17:41;;;;;;;26.60;5.28;;;7.60;99.90;;;;;;5013041;28;20113;-58
2023/02/01 12:20:18;;;;;;;15.85;3.08;;;7.60;99.90;;;;;;5026703;28;20071;-54
2023/02/01 12:22:56;;;;;;;11.80;2.40;;;7.70;99.90;;;;;;5032600;28;20083;-62
2023/02/01 12:25:53;;;;;;;12.63;2.95;;;7.70;99.90;;;;;;5027898;28;20052;-62
2023/02/01 12:28:38;;;;;;;7.03;2.65;;;7.70;99.90;;;;;;5032402;28;20073;-56
2023/02/01 12:31:23;;;;;;;14.40;2.67;;;7.70;99.90;;;;;;5053787;23;20481;-52
2023/02/01 12:34:10;;;;;;;13.35;3.22;;;7.70;99.90;;;;;;5033060;28;20079;-51
2023/02/01 12:36:58;;;;;;;14.52;3.30;;;7.80;99.90;;;;;;5031194;28;20029;-46
2023/02/01 12:39:35;;;;;;;6.38;2.40;;;7.80;99.90;;;;;;5024838;28;20072;-54
2023/02/01 12:42:09;;;;;;;19.67;3.95;;;7.80;99.90;;;;;;5052419;28;20493;-53
2023/02/01 12:44:37;;;;;;;13.60;2.33;;;7.80;99.90;;;;;;5042086;28;20025;-49
2023/02/01 12:47:12;;;;;;;16.70;3.10;;;7.80;99.90;;;;;;5015040;28;20209;-49
2023/02/01 12:49:55;;;;;;;10.68;3.45;;;7.80;99.90;;;;;;5034401;28;20022;-49
2023/02/01 12:52:34;;;;;;;9.85;2.50;;;7.80;99.90;;;;;;5035540;28;20037;-49
2023/02/01 12:55:06;;;;;;;8.23;3.05;;;7.80;99.90;;;;;;5032015;28;20022;-53
2023/02/01 12:57:39;;;;;;;16.83;3.10;;;7.80;99.90;;;;;;5032604;28;20105;-53
2023/02/01 13:00:30;;;;;;;23.48;4.00;;;7.80;99.90;;;;;;5032790;28;20657;-52
2023/02/01 13:03:31;;;;;;;9.40;2.30;;;7.80;99.90;;;;;;5032125;28;20026;-49
2023/02/01 13:06:08;;;;;;;11.45;2.42;;;7.80;99.90;;;;;;4932840;29;20192;-51
2023/02/01 13:08:53;;;;;;;12.40;2.75;;;7.80;99.90;;;;;;5018624;28;20111;-48
2023/02/01 13:11:33;;;;;;;15.02;3.22;;;7.80;99.90;;;;;;5031952;28;20034;-49
2023/02/01 13:14:22;;;;;;;12.23;3.22;;;7.80;99.90;;;;;;5046182;28;20025;-57
2023/02/01 13:16:52;;;;;;;12.60;2.92;;;7.80;99.90;;;;;;5037995;28;20026;-54
2023/02/01 13:19:53;;;;;;;13.90;3.00;;;7.80;99.90;;;;;;5042735;28;20071;-50
2023/02/01 13:22:40;;;;;;;7.60;2.22;;;7.80;99.90;;;;;;5053655;28;20103;-54
2023/02/01 13:25:31;;;;;;;17.73;2.58;;;7.80;99.90;;;;;;5052987;28;20027;-55
2023/02/01 13:28:04;;;;;;;8.90;2.83;;;7.80;99.90;;;;;;5027342;28;20402;-56
2023/02/01 13:30:48;;;;;;;11.50;2.85;;;7.80;99.90;;;;;;5031043;28;20072;-56
2023/02/01 13:33:36;;;;;;;14.65;2.42;;;7.80;99.90;;;;;;5014077;28;20030;-49
2023/02/01 13:36:45;;;;;;;15.15;3.17;;;7.80;99.90;;;;;;5031799;28;20033;-52
2023/02/01 13:39:41;;;;;;;14.02;2.40;;;7.80;99.90;;;;;;5011907;28;20033;-51